Time;durP1;ratioP1;P1;durP2;ratioP2;P2;SDS_P1;SDS_P2;PMS_P1;PMS_P2;Temp;Humidity;BMP_temperature;BMP_pressure;BME280_temperature;BME280_humidity;BME280_pressure;Samples;Min_cycle;Max_cycle;Signal;HPM_P1;HPM_P2
2022/12/21 05:44:05;;;;;;;22.95;12.33;;;;;;;-1.42;100.00;100751.48;1647633;84;21192;-38
2022/12/21 05:46:32;;;;;;;14.50;9.80;;;;;;;-1.46;100.00;100763.25;1721835;83;20995;-46
2022/12/21 05:48:58;;;;;;;15.40;8.90;;;;;;;-1.48;100.00;100765.27;1697945;83;21579;-39
2022/12/21 05:51:25;;;;;;;15.98;8.98;;;;;;;-1.50;100.00;100765.19;1730256;82;21011;-40
2022/12/21 05:53:55;;;;;;;13.22;7.90;;;;;;;-1.52;100.00;100774.86;1731685;82;21095;-50
2022/12/21 05:56:24;;;;;;;17.85;9.73;;;;;;;-1.53;100.00;100782.97;1720231;80;21117;-47
2022/12/21 05:58:51;;;;;;;17.90;7.62;;;;;;;-1.54;100.00;100789.30;1678463;84;21079;-46
2022/12/21 06:01:18;;;;;;;13.83;8.80;;;;;;;-1.52;100.00;100786.41;1722190;82;20991;-46
2022/12/21 06:03:45;;;;;;;13.50;7.75;;;;;;;-1.51;100.00;100798.44;1720695;82;21069;-48
2022/12/21 06:06:14;;;;;;;17.87;11.10;;;;;;;-1.50;100.00;100792.53;1720262;83;20988;-46
2022/12/21 06:08:42;;;;;;;17.05;10.35;;;;;;;-1.49;100.00;100795.18;1708134;84;21055;-47
2022/12/21 06:11:11;;;;;;;18.17;8.58;;;;;;;-1.49;100.00;100799.03;1717862;83;21370;-47
2022/12/21 06:13:42;;;;;;;15.40;7.05;;;;;;;-1.47;100.00;100792.29;1722009;82;21034;-45
2022/12/21 06:16:12;;;;;;;13.05;7.25;;;;;;;-1.44;100.00;100798.02;1719119;82;20983;-48
2022/12/21 06:18:38;;;;;;;19.55;6.65;;;;;;;-1.42;100.00;100792.15;1722874;82;21122;-48
2022/12/21 06:21:05;;;;;;;15.68;7.30;;;;;;;-1.38;100.00;100788.08;1720556;82;21039;-48
2022/12/21 06:23:32;;;;;;;19.57;7.20;;;;;;;-1.33;100.00;100787.94;1710815;82;20978;-48
2022/12/21 06:26:05;;;;;;;11.28;6.40;;;;;;;-1.31;100.00;100791.47;1718569;82;21392;-39
2022/12/21 06:28:39;;;;;;;11.43;6.25;;;;;;;-1.28;100.00;100792.91;1716669;82;20992;-48
2022/12/21 06:31:09;;;;;;;11.70;7.20;;;;;;;-1.23;100.00;100795.33;1718155;82;21082;-49
2022/12/21 06:33:36;;;;;;;16.45;6.33;;;;;;;-1.18;100.00;100790.45;1718732;82;21002;-48
2022/12/21 06:36:06;;;;;;;10.20;6.47;;;;;;;-1.12;100.00;100799.37;1718566;82;20987;-40
2022/12/21 06:38:36;;;;;;;8.50;4.70;;;;;;;-1.03;100.00;100798.12;1689377;82;20983;-50
2022/12/21 06:41:07;;;;;;;13.55;6.83;;;;;;;-0.96;100.00;100805.34;1718240;82;21350;-41
2022/12/21 06:43:55;;;;;;;7.95;4.47;;;;;;;-0.91;100.00;100803.92;1715920;82;21857;-48
2022/12/21 06:46:28;;;;;;;14.53;6.50;;;;;;;-0.85;100.00;100812.83;1695460;82;21354;-40
2022/12/21 06:49:50;;;;;;;11.75;6.87;;;;;;;-0.80;100.00;100810.52;1710578;82;21106;-40
2022/12/21 06:52:50;;;;;;;14.70;7.70;;;;;;;-0.75;100.00;100818.08;1718443;82;21425;-39
2022/12/21 06:56:38;;;;;;;15.28;6.45;;;;;;;-0.70;100.00;100811.87;1713549;82;21069;-48
2022/12/21 06:59:59;;;;;;;12.07;6.40;;;;;;;-0.62;100.00;100814.47;1715598;82;21573;-48
2022/12/21 07:03:11;;;;;;;12.78;6.55;;;;;;;-0.51;100.00;100812.46;1720226;82;21040;-39
2022/12/21 07:06:02;;;;;;;10.85;6.12;;;;;;;-0.44;100.00;100804.26;1704340;82;21148;-49
2022/12/21 07:08:36;;;;;;;12.75;6.10;;;;;;;-0.40;100.00;100793.34;1698982;82;21748;-39
2022/12/21 07:11:11;;;;;;;12.88;6.25;;;;;;;-0.38;100.00;100779.74;1716147;82;21123;-49
2022/12/21 07:14:00;;;;;;;13.90;8.13;;;;;;;-0.38;100.00;100772.03;1702960;82;21483;-47
2022/12/21 07:16:27;;;;;;;14.90;7.40;;;;;;;-0.37;100.00;100777.65;1716210;82;22078;-40
2022/12/21 07:18:54;;;;;;;16.15;8.05;;;;;;;-0.38;100.00;100778.45;1665958;84;21564;-49
2022/12/21 07:21:21;;;;;;;12.33;6.47;;;;;;;-0.36;100.00;100780.69;1715071;82;21885;-49
2022/12/21 07:23:48;;;;;;;12.82;6.37;;;;;;;-0.31;100.00;100783.50;1714427;82;21699;-49
2022/12/21 07:26:20;;;;;;;11.97;5.95;;;;;;;-0.31;100.00;100780.94;1717776;82;21399;-40
2022/12/21 07:28:47;;;;;;;11.95;6.87;;;;;;;-0.28;100.00;100783.68;1715332;80;21286;-51
2022/12/21 07:31:22;;;;;;;15.00;6.80;;;;;;;-0.26;100.00;100776.91;1711719;82;20995;-51
2022/12/21 07:33:49;;;;;;;12.98;6.53;;;;;;;-0.23;100.00;100774.52;1713945;82;21062;-40
2022/12/21 07:36:16;;;;;;;12.00;6.75;;;;;;;-0.17;100.00;100781.25;1714972;82;21636;-40
2022/12/21 07:38:42;;;;;;;12.80;6.65;;;;;;;-0.13;100.00;100781.86;1712299;82;21587;-41
2022/12/21 07:41:13;;;;;;;11.38;6.15;;;;;;;-0.10;100.00;100778.17;1708146;82;20958;-39
2022/12/21 07:43:40;;;;;;;13.65;6.87;;;;;;;-0.06;100.00;100774.95;1717592;82;21386;-39
2022/12/21 07:46:09;;;;;;;9.83;6.37;;;;;;;-0.01;100.00;100777.33;1713499;80;21413;-50
2022/12/21 07:48:36;;;;;;;10.72;6.58;;;;;;;0.08;100.00;100761.89;1712564;82;21372;-40
2022/12/21 07:51:04;;;;;;;12.45;7.30;;;;;;;0.20;100.00;100771.50;1715690;82;21039;-41
2022/12/21 07:54:12;;;;;;;14.87;6.12;;;;;;;0.37;100.00;100767.17;1711947;82;21034;-39
2022/12/21 07:56:45;;;;;;;13.43;7.28;;;;;;;0.52;99.25;100771.38;1718032;82;21281;-41
2022/12/21 07:59:26;;;;;;;12.20;7.33;;;;;;;0.65;98.58;100781.84;1720691;82;21078;-49
